createdAt,value
2023-03-30T00:01:18.587Z,1.50
2023-03-30T00:03:50.234Z,1.51
2023-03-30T00:06:23.120Z,1.52
2023-03-30T00:08:59.148Z,1.52
2023-03-30T00:11:34.038Z,1.51
2023-03-30T00:14:04.094Z,1.47
2023-03-30T00:16:32.300Z,1.44
2023-03-30T00:19:00.522Z,1.40
2023-03-30T00:21:33.548Z,1.38
2023-03-30T00:24:03.665Z,1.36
2023-03-30T00:26:35.212Z,1.34
2023-03-30T00:29:04.458Z,1.34
2023-03-30T00:31:33.103Z,1.35
2023-03-30T00:34:01.197Z,1.35
2023-03-30T00:36:30.690Z,1.35
2023-03-30T00:39:01.511Z,1.33
2023-03-30T00:41:29.617Z,1.31
2023-03-30T00:44:03.973Z,1.30
2023-03-30T00:46:32.367Z,1.27
2023-03-30T00:49:07.266Z,1.25
2023-03-30T00:51:37.347Z,1.21
2023-03-30T00:54:14.444Z,1.17
2023-03-30T00:56:42.872Z,1.14
2023-03-30T00:59:11.197Z,1.12
2023-03-30T01:01:42.861Z,1.12
2023-03-30T01:04:14.352Z,1.14
2023-03-30T01:06:43.675Z,1.16
2023-03-30T01:09:13.386Z,1.18
2023-03-30T01:11:42.872Z,1.20
2023-03-30T01:14:14.701Z,1.20
2023-03-30T01:16:43.329Z,1.19
2023-03-30T01:19:48.047Z,1.17
2023-03-30T01:22:35.209Z,1.12
2023-03-30T01:25:41.805Z,1.10
2023-03-30T01:28:15.607Z,1.07
2023-03-30T01:30:51.158Z,1.05
2023-03-30T01:33:34.367Z,1.02
2023-03-30T01:36:20.740Z,1.00
2023-03-30T01:39:06.542Z,0.99
2023-03-30T01:42:03.631Z,0.99
2023-03-30T01:44:35.730Z,1.03
2023-03-30T01:47:07.279Z,1.03
2023-03-30T01:49:41.103Z,1.02
2023-03-30T01:52:24.063Z,1.02
2023-03-30T01:55:13.863Z,1.01
2023-03-30T01:57:46.557Z,0.98
2023-03-30T02:00:17.934Z,0.95
2023-03-30T02:03:10.957Z,0.91
2023-03-30T02:05:39.183Z,0.88
2023-03-30T02:08:13.698Z,0.85
2023-03-30T02:10:43.451Z,0.83
2023-03-30T02:13:11.371Z,0.82
2023-03-30T02:15:47.933Z,0.83
2023-03-30T02:18:18.972Z,0.83
2023-03-30T02:20:49.518Z,0.82
2023-03-30T02:23:21.022Z,0.81
2023-03-30T02:25:49.620Z,0.79
2023-03-30T02:28:24.971Z,0.78
2023-03-30T02:30:53.774Z,0.76
2023-03-30T02:33:30.097Z,0.73
2023-03-30T02:36:21.938Z,0.70
2023-03-30T02:39:05.453Z,0.67
2023-03-30T02:41:52.785Z,0.66
2023-03-30T02:44:22.977Z,0.64
2023-03-30T02:47:02.659Z,0.63
2023-03-30T02:49:56.627Z,0.62
2023-03-30T02:52:51.169Z,0.63
2023-03-30T02:55:20.638Z,0.64
2023-03-30T02:58:21.460Z,0.63
2023-03-30T03:00:52.408Z,0.62
2023-03-30T03:03:38.668Z,0.61
2023-03-30T03:06:12.226Z,0.57
2023-03-30T03:08:47.571Z,0.54
2023-03-30T03:11:19.920Z,0.52
2023-03-30T03:13:50.015Z,0.50
2023-03-30T03:16:19.270Z,0.49
2023-03-30T03:19:05.777Z,0.48
2023-03-30T03:21:36.706Z,0.44
2023-03-30T03:24:05.360Z,0.38
2023-03-30T03:26:59.477Z,0.38
2023-03-30T03:29:28.125Z,0.38
2023-03-30T03:31:59.214Z,0.40
2023-03-30T03:34:33.309Z,0.42
2023-03-30T03:37:04.508Z,0.44
2023-03-30T03:39:33.780Z,0.45
2023-03-30T03:42:07.040Z,0.45
2023-03-30T03:44:37.823Z,0.44
2023-03-30T03:47:06.763Z,0.42
2023-03-30T03:49:34.731Z,0.40
2023-03-30T03:52:03.965Z,0.39
2023-03-30T03:54:32.164Z,0.38
2023-03-30T03:57:02.099Z,0.37
2023-03-30T03:59:32.439Z,0.39
2023-03-30T04:02:00.560Z,0.41
2023-03-30T04:04:29.581Z,0.44
2023-03-30T04:06:58.018Z,0.49
2023-03-30T04:09:26.279Z,0.56
2023-03-30T04:12:15.043Z,0.61
2023-03-30T04:15:06.738Z,0.65
2023-03-30T04:17:50.147Z,0.67
2023-03-30T04:20:37.713Z,0.70
2023-03-30T04:23:25.659Z,0.73
2023-03-30T04:26:17.805Z,0.77
2023-03-30T04:29:17.994Z,0.80
2023-03-30T04:32:04.169Z,0.83
2023-03-30T04:34:54.888Z,0.87
2023-03-30T04:37:38.486Z,0.92
2023-03-30T04:40:24.848Z,0.99
2023-03-30T04:42:56.727Z,1.05
2023-03-30T04:45:51.955Z,1.14
2023-03-30T04:48:37.958Z,1.23
2023-03-30T04:51:18.850Z,1.30
2023-03-30T04:54:04.530Z,1.36
2023-03-30T04:56:59.123Z,1.44
2023-03-30T04:59:46.041Z,1.59
2023-03-30T05:02:36.606Z,1.85
2023-03-30T05:05:40.137Z,2.00
2023-03-30T05:08:15.974Z,2.12
2023-03-30T05:10:50.386Z,2.25
2023-03-30T05:13:31.446Z,2.34
2023-03-30T05:16:37.563Z,2.80
2023-03-30T05:19:25.614Z,3.90
2023-03-30T05:22:17.696Z,5.31
2023-03-30T05:25:04.295Z,6.52
2023-03-30T05:27:49.657Z,7.49
2023-03-30T05:30:29.182Z,8.28
2023-03-30T05:33:17.265Z,9.06
2023-03-30T05:36:04.744Z,9.76
2023-03-30T05:38:50.090Z,10.42
2023-03-30T05:41:40.991Z,11.02
2023-03-30T05:44:22.434Z,11.45
2023-03-30T05:47:09.987Z,11.95
2023-03-30T05:49:56.914Z,12.42
2023-03-30T05:52:28.560Z,12.76
2023-03-30T05:55:24.001Z,13.02
2023-03-30T05:58:18.208Z,13.32
2023-03-30T06:01:08.153Z,13.64
2023-03-30T06:03:40.145Z,13.82
2023-03-30T06:06:09.741Z,13.98
2023-03-30T06:08:40.980Z,14.13
2023-03-30T06:11:11.433Z,14.27
2023-03-30T06:13:51.750Z,14.45
2023-03-30T06:16:20.181Z,14.64
2023-03-30T06:18:51.211Z,14.85
2023-03-30T06:21:19.456Z,14.92
2023-03-30T06:23:55.215Z,14.89
2023-03-30T06:26:25.286Z,14.96
2023-03-30T06:28:53.411Z,15.13
2023-03-30T06:31:22.193Z,15.29
2023-03-30T06:33:55.527Z,15.37
2023-03-30T06:36:44.768Z,15.46
2023-03-30T06:39:12.473Z,15.50
2023-03-30T06:41:42.014Z,15.57
2023-03-30T06:44:22.789Z,15.65
2023-03-30T06:46:54.130Z,15.67
2023-03-30T06:49:22.216Z,15.76
2023-03-30T06:52:13.285Z,15.70
2023-03-30T06:54:41.837Z,15.59
2023-03-30T06:57:09.898Z,15.57
2023-03-30T06:59:39.014Z,15.59
2023-03-30T07:02:16.759Z,15.60
2023-03-30T07:05:01.348Z,15.75
2023-03-30T07:07:41.085Z,15.89
2023-03-30T07:10:13.158Z,16.02
2023-03-30T07:12:43.940Z,16.03
2023-03-30T07:15:12.584Z,16.09
2023-03-30T07:17:41.525Z,16.13
2023-03-30T07:20:16.402Z,16.19
2023-03-30T07:22:59.220Z,16.27
2023-03-30T07:25:27.329Z,16.31
2023-03-30T07:27:59.703Z,16.34
2023-03-30T07:30:28.058Z,16.41
2023-03-30T07:33:02.149Z,16.51
2023-03-30T07:35:30.915Z,16.54
2023-03-30T07:38:03.345Z,16.56
2023-03-30T07:40:37.407Z,16.70
2023-03-30T07:43:07.509Z,16.75
2023-03-30T07:45:36.014Z,16.81
2023-03-30T07:48:04.821Z,16.87
2023-03-30T07:50:34.123Z,16.93
2023-03-30T07:53:04.104Z,16.86
2023-03-30T07:55:32.747Z,16.84
2023-03-30T07:58:13.197Z,17.04
2023-03-30T08:00:42.388Z,17.20
2023-03-30T08:03:37.121Z,17.28
2023-03-30T08:06:06.701Z,17.27
2023-03-30T08:08:43.647Z,17.22
2023-03-30T08:11:12.895Z,17.27
2023-03-30T08:13:45.248Z,17.41
2023-03-30T08:16:13.714Z,17.55
2023-03-30T08:18:41.810Z,17.61
2023-03-30T08:21:11.306Z,17.68
2023-03-30T08:23:39.618Z,17.76
2023-03-30T08:26:09.395Z,17.74
2023-03-30T08:28:38.308Z,17.83
2023-03-30T08:31:06.941Z,18.01
2023-03-30T08:33:36.794Z,18.13
2023-03-30T08:36:08.388Z,18.11
2023-03-30T08:38:42.929Z,17.76
2023-03-30T08:41:29.280Z,17.39
2023-03-30T08:44:25.966Z,17.48
2023-03-30T08:46:54.485Z,17.64
2023-03-30T08:49:23.090Z,17.78
2023-03-30T08:51:52.930Z,17.90
2023-03-30T08:54:22.525Z,17.97
2023-03-30T08:57:17.039Z,18.05
2023-03-30T09:00:11.681Z,18.13
2023-03-30T09:02:46.402Z,18.14
2023-03-30T09:05:26.483Z,18.19
2023-03-30T09:08:03.764Z,18.12
2023-03-30T09:10:35.215Z,17.94
2023-03-30T09:13:04.035Z,17.92
2023-03-30T09:15:43.022Z,17.94
2023-03-30T09:18:43.577Z,17.93
2023-03-30T09:21:12.542Z,17.88
2023-03-30T09:23:42.694Z,17.82
2023-03-30T09:26:55.733Z,17.74
2023-03-30T09:29:28.813Z,17.41
2023-03-30T09:32:09.420Z,17.30
2023-03-30T09:34:47.980Z,17.26
2023-03-30T09:37:18.867Z,17.19
2023-03-30T09:39:47.745Z,17.23
2023-03-30T09:42:32.874Z,17.31
2023-03-30T09:45:15.610Z,17.39
2023-03-30T09:47:43.775Z,17.37
2023-03-30T09:50:23.941Z,17.39
2023-03-30T09:53:05.213Z,17.43
2023-03-30T09:55:36.945Z,17.45
2023-03-30T09:58:18.810Z,17.34
2023-03-30T10:00:47.364Z,17.29
2023-03-30T10:03:21.084Z,17.11
2023-03-30T10:06:03.012Z,16.92
2023-03-30T10:08:31.493Z,16.89
2023-03-30T10:11:01.351Z,16.77
2023-03-30T10:13:37.759Z,16.63
2023-03-30T10:16:15.787Z,16.57
2023-03-30T10:18:47.948Z,16.56
2023-03-30T10:21:30.820Z,16.60
2023-03-30T10:24:14.861Z,16.59
2023-03-30T10:26:47.050Z,16.51
2023-03-30T10:29:18.537Z,16.45
2023-03-30T10:31:47.686Z,16.32
2023-03-30T10:34:21.453Z,16.25
2023-03-30T10:36:54.032Z,16.21
2023-03-30T10:39:29.800Z,16.09
2023-03-30T10:42:00.160Z,15.68
2023-03-30T10:44:32.443Z,15.25
2023-03-30T10:47:11.853Z,15.08
2023-03-30T10:49:47.659Z,15.15
2023-03-30T10:52:58.485Z,15.29
2023-03-30T10:55:43.378Z,15.46
2023-03-30T10:58:11.399Z,15.47
2023-03-30T11:00:49.548Z,15.46
2023-03-30T11:03:29.631Z,15.49
2023-03-30T11:06:10.726Z,15.58
2023-03-30T11:08:41.745Z,15.67
2023-03-30T11:11:13.993Z,15.77
2023-03-30T11:13:44.158Z,15.93
2023-03-30T11:16:16.996Z,16.06
2023-03-30T11:18:57.845Z,16.23
2023-03-30T11:21:37.445Z,16.32
2023-03-30T11:24:26.917Z,16.34
2023-03-30T11:27:14.472Z,16.31
2023-03-30T11:30:14.660Z,16.29
2023-03-30T11:32:53.832Z,16.36
2023-03-30T11:35:37.174Z,16.36
2023-03-30T11:38:26.353Z,16.20
2023-03-30T11:41:43.663Z,16.04
2023-03-30T11:44:12.065Z,15.90
2023-03-30T11:46:51.640Z,15.94
2023-03-30T11:49:38.684Z,15.98
2023-03-30T11:52:52.265Z,16.08
2023-03-30T11:55:45.932Z,16.19
2023-03-30T11:58:30.899Z,16.03
2023-03-30T12:01:21.230Z,15.95
2023-03-30T12:03:53.934Z,15.99
2023-03-30T12:06:35.005Z,15.91
2023-03-30T12:09:49.618Z,15.73
2023-03-30T12:12:36.551Z,15.54
2023-03-30T12:15:19.283Z,15.44
2023-03-30T12:18:15.189Z,15.39
2023-03-30T12:20:57.338Z,15.46
2023-03-30T12:24:04.118Z,15.58
2023-03-30T12:26:34.381Z,15.75
2023-03-30T12:29:44.450Z,15.87
2023-03-30T12:31:55.931Z,15.96
2023-03-30T12:34:26.187Z,16.02
2023-03-30T12:37:15.522Z,16.03
2023-03-30T12:40:08.835Z,16.01
2023-03-30T12:42:39.611Z,15.91
2023-03-30T12:45:21.584Z,15.82
2023-03-30T12:48:26.448Z,15.72
2023-03-30T12:51:22.412Z,15.60
2023-03-30T12:54:17.192Z,15.63
2023-03-30T12:56:55.393Z,15.66
2023-03-30T13:00:02.361Z,15.48
2023-03-30T13:02:48.877Z,15.26
2023-03-30T13:05:19.853Z,14.93
2023-03-30T13:07:50.791Z,14.65
2023-03-30T13:10:36.855Z,14.69
2023-03-30T13:13:07.980Z,14.86
2023-03-30T13:15:46.615Z,15.00
2023-03-30T13:18:15.014Z,15.09
2023-03-30T13:21:07.041Z,15.12
2023-03-30T13:23:35.958Z,15.15
2023-03-30T13:26:08.029Z,15.17
2023-03-30T13:28:54.880Z,15.19
2023-03-30T13:31:51.591Z,15.22
2023-03-30T13:34:39.549Z,15.18
2023-03-30T13:37:32.638Z,14.99
2023-03-30T13:40:07.382Z,14.72
2023-03-30T13:42:58.494Z,14.59
2023-03-30T13:45:36.585Z,14.52
2023-03-30T13:48:28.450Z,14.48
2023-03-30T13:51:02.135Z,14.45
2023-03-30T13:53:38.510Z,14.42
2023-03-30T13:56:08.008Z,14.36
2023-03-30T13:58:36.989Z,14.31
2023-03-30T14:01:10.008Z,14.30
2023-03-30T14:03:40.941Z,14.29
2023-03-30T14:06:20.992Z,14.24
2023-03-30T14:08:50.611Z,14.21
2023-03-30T14:11:24.201Z,14.20
2023-03-30T14:13:55.454Z,14.17
2023-03-30T14:16:24.932Z,14.15
2023-03-30T14:19:08.154Z,14.17
2023-03-30T14:21:37.156Z,14.09
2023-03-30T14:24:08.476Z,13.90
2023-03-30T14:26:39.492Z,13.77
2023-03-30T14:29:21.009Z,13.77
2023-03-30T14:32:09.839Z,13.73
2023-03-30T14:34:39.572Z,13.67
2023-03-30T14:37:08.096Z,13.64
2023-03-30T14:39:47.508Z,13.61
2023-03-30T14:42:17.696Z,13.56
2023-03-30T14:44:49.736Z,13.50
2023-03-30T14:47:19.509Z,13.44
2023-03-30T14:49:47.742Z,13.40
2023-03-30T14:52:21.662Z,13.36
2023-03-30T14:55:05.218Z,13.31
2023-03-30T14:57:38.423Z,13.31
2023-03-30T15:00:21.330Z,13.32
2023-03-30T15:02:53.506Z,13.26
2023-03-30T15:05:23.282Z,13.20
2023-03-30T15:07:52.070Z,13.15
2023-03-30T15:10:22.498Z,13.11
2023-03-30T15:12:53.117Z,13.06
2023-03-30T15:15:24.825Z,12.94
2023-03-30T15:17:53.222Z,12.69
2023-03-30T15:20:21.376Z,12.48
2023-03-30T15:22:52.078Z,12.34
2023-03-30T15:25:31.421Z,12.22
2023-03-30T15:28:02.666Z,12.19
2023-03-30T15:30:42.652Z,12.19
2023-03-30T15:33:22.348Z,12.20
2023-03-30T15:35:51.982Z,12.17
2023-03-30T15:38:28.939Z,12.09
2023-03-30T15:40:56.934Z,12.00
2023-03-30T15:43:27.156Z,11.88
2023-03-30T15:46:03.061Z,11.75
2023-03-30T15:48:34.985Z,11.65
2023-03-30T15:51:13.784Z,11.54
2023-03-30T15:53:48.392Z,11.47
2023-03-30T15:56:27.732Z,11.41
2023-03-30T15:58:55.700Z,11.33
2023-03-30T16:01:23.899Z,11.25
2023-03-30T16:03:56.841Z,11.16
2023-03-30T16:06:25.017Z,11.06
2023-03-30T16:08:53.012Z,10.98
2023-03-30T16:11:21.139Z,10.88
2023-03-30T16:13:49.444Z,10.79
2023-03-30T16:16:18.702Z,10.69
2023-03-30T16:18:47.000Z,10.59
2023-03-30T16:21:15.841Z,10.49
2023-03-30T16:23:43.976Z,10.36
2023-03-30T16:26:14.768Z,10.20
2023-03-30T16:28:43.050Z,10.04
2023-03-30T16:31:17.364Z,9.94
2023-03-30T16:33:45.427Z,9.84
2023-03-30T16:36:15.978Z,9.74
2023-03-30T16:38:44.638Z,9.65
2023-03-30T16:41:20.388Z,9.58
2023-03-30T16:43:48.751Z,9.52
2023-03-30T16:46:18.597Z,9.48
2023-03-30T16:48:48.908Z,9.42
2023-03-30T16:51:17.459Z,9.37
2023-03-30T16:53:53.351Z,9.32
2023-03-30T16:56:22.046Z,9.25
2023-03-30T16:58:52.701Z,9.19
2023-03-30T17:01:21.673Z,9.12
2023-03-30T17:03:50.251Z,9.07
2023-03-30T17:06:22.505Z,9.01
2023-03-30T17:08:51.584Z,8.95
2023-03-30T17:11:19.726Z,8.87
2023-03-30T17:13:50.000Z,8.82
2023-03-30T17:16:40.751Z,8.74
2023-03-30T17:19:13.260Z,8.68
2023-03-30T17:21:43.863Z,8.61
2023-03-30T17:24:13.127Z,8.56
2023-03-30T17:26:42.826Z,8.49
2023-03-30T17:29:10.880Z,8.44
2023-03-30T17:31:41.685Z,8.38
2023-03-30T17:34:09.744Z,8.32
2023-03-30T17:36:38.087Z,8.27
2023-03-30T17:39:07.240Z,8.23
2023-03-30T17:41:35.489Z,8.16
2023-03-30T17:44:03.507Z,8.05
2023-03-30T17:46:32.677Z,7.99
2023-03-30T17:49:01.193Z,7.89
2023-03-30T17:51:29.357Z,7.80
2023-03-30T17:53:57.494Z,7.74
2023-03-30T17:56:26.856Z,7.68
2023-03-30T17:58:55.006Z,7.64
2023-03-30T18:01:23.017Z,7.62
2023-03-30T18:03:52.063Z,7.60
2023-03-30T18:06:22.815Z,7.58
2023-03-30T18:08:51.046Z,7.56
2023-03-30T18:11:23.296Z,7.54
2023-03-30T18:13:53.690Z,7.52
2023-03-30T18:16:24.414Z,7.50
2023-03-30T18:18:52.875Z,7.48
2023-03-30T18:21:21.027Z,7.42
2023-03-30T18:23:50.694Z,7.27
2023-03-30T18:26:21.429Z,7.07
2023-03-30T18:28:49.729Z,6.94
2023-03-30T18:31:18.023Z,6.84
2023-03-30T18:33:50.984Z,6.78
2023-03-30T18:36:23.930Z,6.78
2023-03-30T18:38:52.477Z,6.82
2023-03-30T18:41:23.900Z,6.79
2023-03-30T18:43:54.131Z,6.90
2023-03-30T18:46:22.524Z,6.91
2023-03-30T18:48:50.614Z,6.88
2023-03-30T18:51:19.355Z,6.89
2023-03-30T18:53:48.940Z,6.93
2023-03-30T18:56:17.281Z,6.99
2023-03-30T18:58:48.064Z,7.06
2023-03-30T19:01:17.918Z,7.17
2023-03-30T19:03:46.730Z,7.28
2023-03-30T19:06:22.007Z,7.39
2023-03-30T19:08:51.108Z,7.47
2023-03-30T19:11:24.382Z,7.54
2023-03-30T19:13:52.904Z,7.60
2023-03-30T19:16:23.851Z,7.67
2023-03-30T19:18:53.834Z,7.73
2023-03-30T19:21:22.033Z,7.79
2023-03-30T19:23:51.403Z,7.81
2023-03-30T19:26:19.635Z,7.84
2023-03-30T19:28:49.830Z,7.87
2023-03-30T19:31:18.272Z,7.90
2023-03-30T19:33:46.412Z,7.90
2023-03-30T19:36:16.745Z,7.91
2023-03-30T19:38:48.145Z,7.91
2023-03-30T19:41:18.005Z,7.93
2023-03-30T19:43:50.190Z,7.89
2023-03-30T19:46:18.836Z,7.87
2023-03-30T19:48:47.233Z,7.86
2023-03-30T19:51:15.272Z,7.85
2023-03-30T19:53:47.604Z,7.86
2023-03-30T19:56:16.146Z,7.88
2023-03-30T19:58:44.615Z,7.89
2023-03-30T20:01:13.633Z,7.87
2023-03-30T20:03:42.125Z,7.84
2023-03-30T20:06:11.741Z,7.82
2023-03-30T20:08:40.679Z,7.82
2023-03-30T20:11:12.673Z,7.83
2023-03-30T20:13:45.830Z,7.85
2023-03-30T20:16:22.250Z,7.86
2023-03-30T20:18:52.431Z,7.86
2023-03-30T20:21:24.581Z,7.87
2023-03-30T20:23:53.183Z,7.89
2023-03-30T20:26:23.700Z,7.91
2023-03-30T20:28:51.676Z,7.94
2023-03-30T20:31:20.422Z,7.95
2023-03-30T20:33:48.672Z,7.97
2023-03-30T20:36:19.151Z,7.97
2023-03-30T20:38:48.401Z,7.96
2023-03-30T20:41:17.584Z,7.94
2023-03-30T20:43:56.354Z,7.92
2023-03-30T20:46:26.205Z,7.92
2023-03-30T20:49:02.290Z,7.92
2023-03-30T20:51:31.303Z,7.93
2023-03-30T20:53:59.285Z,7.96
2023-03-30T20:56:28.755Z,7.99
2023-03-30T20:58:57.126Z,8.00
2023-03-30T21:01:27.320Z,8.02
2023-03-30T21:03:57.818Z,8.06
2023-03-30T21:06:27.178Z,8.10
2023-03-30T21:08:57.732Z,8.14
2023-03-30T21:11:28.558Z,8.13
2023-03-30T21:14:02.245Z,8.11
2023-03-30T21:16:31.502Z,8.10
2023-03-30T21:19:00.968Z,8.09
2023-03-30T21:21:31.495Z,8.09
2023-03-30T21:24:04.369Z,8.11
2023-03-30T21:26:32.448Z,8.11
2023-03-30T21:29:04.878Z,8.07
2023-03-30T21:31:33.485Z,8.08
2023-03-30T21:34:02.398Z,8.08
2023-03-30T21:36:30.523Z,8.09
2023-03-30T21:39:00.931Z,8.09
2023-03-30T21:41:30.402Z,8.10
2023-03-30T21:44:01.150Z,8.11
2023-03-30T21:46:29.488Z,8.12
2023-03-30T21:48:57.765Z,8.10
2023-03-30T21:51:27.758Z,8.07
2023-03-30T21:53:57.551Z,8.03
2023-03-30T21:56:27.676Z,8.01
2023-03-30T21:58:55.832Z,8.00
2023-03-30T22:01:24.603Z,7.99
2023-03-30T22:03:56.610Z,7.99
2023-03-30T22:06:24.904Z,8.01
2023-03-30T22:08:53.305Z,8.01
2023-03-30T22:11:26.535Z,8.01
2023-03-30T22:13:55.735Z,8.01
2023-03-30T22:16:28.977Z,8.00
2023-03-30T22:19:04.390Z,8.01
2023-03-30T22:21:35.848Z,8.04
2023-03-30T22:24:05.549Z,8.05
2023-03-30T22:26:34.703Z,8.06
2023-03-30T22:29:03.754Z,8.08
2023-03-30T22:31:33.264Z,8.12
2023-03-30T22:34:04.199Z,8.15
2023-03-30T22:36:33.330Z,8.19
2023-03-30T22:39:04.353Z,8.22
2023-03-30T22:41:32.849Z,8.25
2023-03-30T22:44:01.175Z,8.19
2023-03-30T22:46:31.406Z,7.94
2023-03-30T22:49:00.256Z,8.16
2023-03-30T22:51:28.989Z,8.21
2023-03-30T22:53:58.697Z,8.22
2023-03-30T22:56:34.500Z,8.24
2023-03-30T22:59:03.758Z,8.21
2023-03-30T23:01:32.402Z,8.18
2023-03-30T23:04:05.814Z,8.16
2023-03-30T23:06:34.417Z,8.13
2023-03-30T23:09:04.006Z,8.08
2023-03-30T23:11:35.036Z,8.04
2023-03-30T23:14:07.623Z,8.03
2023-03-30T23:16:37.861Z,8.02
2023-03-30T23:19:07.503Z,8.02
2023-03-30T23:21:36.852Z,8.02
2023-03-30T23:24:11.293Z,8.02
2023-03-30T23:26:39.425Z,8.01
2023-03-30T23:29:07.631Z,8.02
2023-03-30T23:31:40.267Z,8.04
2023-03-30T23:34:12.590Z,8.03
2023-03-30T23:36:41.283Z,8.03
2023-03-30T23:39:10.364Z,8.03
2023-03-30T23:41:38.291Z,8.03
2023-03-30T23:44:07.343Z,8.04
2023-03-30T23:46:36.037Z,8.05
2023-03-30T23:49:04.219Z,8.05
2023-03-30T23:51:35.014Z,8.07
2023-03-30T23:54:07.192Z,8.08
2023-03-30T23:56:39.162Z,8.08
2023-03-30T23:59:07.238Z,8.09
